Halsey, Nebraska
Current Conditions -  °F | °C
As of 11:15 AM on Friday 24 Oct 2014 (Local Time) from KTIF Reporting Station
Clear Clear  
Wind Chill: 21°   Ceiling: Unl
Heat Index: 21°   Visibility: 10mi
Dew Point:   Wind: 12mph
Humidity: 34%   Direction: 280°W
Pressure: 30.01"   Gusts: NA
Location:  41.9°N, 100.27°W
Report Text: KTIF 241615Z AUTO 28010KT 10SM CLR 21/05 A3001 RMK AO2 T02120047
Loading
Personal Weather Stations






























Interactive Weather Map
Tropical Storm Tracking
New forecast layout! Learn more

10-Day Weather Forecast

Advertisements
Track Severe Weather on mobile